createdAt,value
2023-05-14T00:01:40.096Z,9.90
2023-05-14T00:04:06.956Z,9.90
2023-05-14T00:06:33.940Z,9.90
2023-05-14T00:09:00.794Z,9.90
2023-05-14T00:11:27.723Z,9.90
2023-05-14T00:13:54.512Z,9.90
2023-05-14T00:16:21.370Z,9.90
2023-05-14T00:18:48.205Z,9.90
2023-05-14T00:21:14.984Z,9.90
2023-05-14T00:23:41.775Z,9.90
2023-05-14T00:26:08.622Z,9.90
2023-05-14T00:28:35.581Z,9.90
2023-05-14T00:31:02.409Z,9.90
2023-05-14T00:33:29.261Z,9.90
2023-05-14T00:35:56.030Z,10.00
2023-05-14T00:38:24.262Z,9.90
2023-05-14T00:40:52.046Z,10.00
2023-05-14T00:43:22.754Z,10.00
2023-05-14T00:45:53.793Z,9.90
2023-05-14T00:48:21.825Z,9.90
2023-05-14T00:50:50.748Z,9.90
2023-05-14T00:53:19.269Z,9.90
2023-05-14T00:55:48.714Z,9.90
2023-05-14T00:58:15.770Z,9.90
2023-05-14T01:00:42.842Z,9.90
2023-05-14T01:03:09.852Z,9.90
2023-05-14T01:06:01.598Z,9.90
2023-05-14T01:08:40.629Z,9.90
2023-05-14T01:11:12.782Z,9.90
2023-05-14T01:13:45.623Z,9.90
2023-05-14T01:16:14.566Z,9.90
2023-05-14T01:18:44.106Z,9.90
2023-05-14T01:21:43.185Z,9.90
2023-05-14T01:24:10.096Z,10.00
2023-05-14T01:26:37.696Z,9.90
2023-05-14T01:29:13.262Z,9.90
2023-05-14T01:31:43.806Z,9.90
2023-05-14T01:34:12.694Z,9.90
2023-05-14T01:36:41.117Z,9.90
2023-05-14T01:39:11.287Z,9.90
2023-05-14T01:41:39.506Z,9.90
2023-05-14T01:44:08.801Z,10.00
2023-05-14T01:46:35.718Z,9.90
2023-05-14T01:49:02.644Z,9.90
2023-05-14T01:51:29.619Z,9.90
2023-05-14T01:53:56.467Z,9.90
2023-05-14T01:56:24.175Z,9.90
2023-05-14T01:58:50.957Z,9.90
2023-05-14T02:01:17.713Z,9.90
2023-05-14T02:03:44.584Z,9.90
2023-05-14T02:06:11.589Z,9.90
2023-05-14T02:08:38.382Z,9.90
2023-05-14T02:11:05.276Z,9.90
2023-05-14T02:13:32.212Z,9.90
2023-05-14T02:15:59.015Z,9.90
2023-05-14T02:18:25.898Z,9.90
2023-05-14T02:20:52.715Z,9.90
2023-05-14T02:23:20.616Z,9.80
2023-05-14T02:25:52.537Z,9.90
2023-05-14T02:28:19.295Z,9.80
2023-05-14T02:30:46.150Z,9.90
2023-05-14T02:33:13.094Z,9.80
2023-05-14T02:35:39.952Z,9.80
2023-05-14T02:38:06.876Z,9.80
2023-05-14T02:40:33.727Z,9.80
2023-05-14T02:43:00.489Z,9.80
2023-05-14T02:45:27.354Z,9.80
2023-05-14T02:47:54.157Z,9.80
2023-05-14T02:50:21.126Z,9.80
2023-05-14T02:52:48.077Z,9.80
2023-05-14T02:55:14.827Z,9.80
2023-05-14T02:57:41.616Z,9.80
2023-05-14T03:00:09.181Z,9.70
2023-05-14T03:02:36.538Z,9.70
2023-05-14T03:05:04.103Z,9.70
2023-05-14T03:07:30.875Z,9.70
2023-05-14T03:09:57.841Z,9.70
2023-05-14T03:12:24.731Z,9.70
2023-05-14T03:14:54.284Z,9.70
2023-05-14T03:17:21.105Z,9.70
2023-05-14T03:19:47.938Z,9.70
2023-05-14T03:22:14.798Z,9.70
2023-05-14T03:24:41.612Z,9.70
2023-05-14T03:27:08.380Z,9.80
2023-05-14T03:29:35.445Z,9.80
2023-05-14T03:32:02.287Z,9.80
2023-05-14T03:34:29.095Z,9.80
2023-05-14T03:36:55.903Z,9.70
2023-05-14T03:39:22.724Z,9.70
2023-05-14T03:41:49.546Z,9.70
2023-05-14T03:44:16.489Z,9.70
2023-05-14T03:46:43.277Z,9.70
2023-05-14T03:49:10.137Z,9.70
2023-05-14T03:51:36.910Z,9.70
2023-05-14T03:54:03.829Z,9.70
2023-05-14T03:56:30.596Z,9.80
2023-05-14T03:58:57.381Z,9.70
2023-05-14T04:01:24.342Z,9.70
2023-05-14T04:03:51.340Z,9.70
2023-05-14T04:06:18.309Z,9.70
2023-05-14T04:08:45.269Z,9.70
2023-05-14T04:11:12.097Z,9.80
2023-05-14T04:13:38.976Z,9.70
2023-05-14T04:16:06.174Z,9.70
2023-05-14T04:18:35.340Z,9.70
2023-05-14T04:21:02.716Z,9.80
2023-05-14T04:23:31.750Z,9.80
2023-05-14T04:25:59.261Z,9.80
2023-05-14T04:28:26.151Z,9.80
2023-05-14T04:30:53.502Z,9.80
2023-05-14T04:33:20.382Z,9.70
2023-05-14T04:35:47.166Z,9.70
2023-05-14T04:38:14.563Z,9.70
2023-05-14T04:40:44.258Z,9.70
2023-05-14T04:43:11.103Z,9.70
2023-05-14T04:45:37.874Z,9.80
2023-05-14T04:48:05.982Z,9.80
2023-05-14T04:50:32.825Z,9.80
2023-05-14T04:52:59.720Z,9.80
2023-05-14T04:55:27.971Z,9.80
2023-05-14T04:57:54.957Z,9.80
2023-05-14T05:00:22.346Z,9.80
2023-05-14T05:02:49.534Z,9.80
2023-05-14T05:05:16.351Z,9.80
2023-05-14T05:07:43.117Z,9.80
2023-05-14T05:10:10.140Z,9.80
2023-05-14T05:12:36.933Z,9.80
2023-05-14T05:15:04.182Z,9.80
2023-05-14T05:17:31.214Z,9.80
2023-05-14T05:19:58.078Z,9.80
2023-05-14T05:22:24.972Z,9.80
2023-05-14T05:24:51.716Z,9.80
2023-05-14T05:27:18.597Z,9.80
2023-05-14T05:29:46.297Z,9.80
2023-05-14T05:32:13.359Z,9.80
2023-05-14T05:34:41.848Z,9.80
2023-05-14T05:37:12.675Z,9.80
2023-05-14T05:39:39.883Z,9.90
2023-05-14T05:42:07.171Z,9.90
2023-05-14T05:44:33.968Z,9.80
2023-05-14T05:47:00.881Z,9.80
2023-05-14T05:49:27.991Z,9.90
2023-05-14T05:51:54.801Z,9.80
2023-05-14T05:54:22.984Z,9.90
2023-05-14T05:56:49.752Z,9.80
2023-05-14T05:59:16.522Z,9.90
2023-05-14T06:01:43.640Z,9.80
2023-05-14T06:04:12.026Z,9.90
2023-05-14T06:06:38.812Z,9.90
2023-05-14T06:09:07.071Z,9.90
2023-05-14T06:11:33.854Z,9.90
2023-05-14T06:14:00.665Z,9.90
2023-05-14T06:16:27.751Z,9.90
2023-05-14T06:18:55.522Z,9.90
2023-05-14T06:21:22.444Z,9.90
2023-05-14T06:23:49.394Z,9.90
2023-05-14T06:26:16.182Z,9.90
2023-05-14T06:28:42.926Z,10.00
2023-05-14T06:31:09.705Z,9.90
2023-05-14T06:33:36.466Z,10.00
2023-05-14T06:36:06.938Z,10.00
2023-05-14T06:38:33.774Z,10.00
2023-05-14T06:41:00.561Z,10.10
2023-05-14T06:43:27.467Z,10.10
2023-05-14T06:45:54.596Z,10.10
2023-05-14T06:48:21.585Z,10.10
2023-05-14T06:50:49.318Z,10.00
2023-05-14T06:53:16.495Z,10.10
2023-05-14T06:55:43.462Z,10.10
2023-05-14T06:58:10.544Z,10.10
2023-05-14T07:00:37.414Z,10.10
2023-05-14T07:03:04.426Z,10.10
2023-05-14T07:05:31.461Z,10.10
2023-05-14T07:07:58.378Z,10.10
2023-05-14T07:10:25.637Z,10.00
2023-05-14T07:12:52.691Z,10.00
2023-05-14T07:15:19.813Z,10.00
2023-05-14T07:17:46.765Z,10.10
2023-05-14T07:20:13.783Z,10.10
2023-05-14T07:22:40.695Z,10.00
2023-05-14T07:25:07.945Z,10.00
2023-05-14T07:27:34.781Z,9.90
2023-05-14T07:30:01.669Z,10.00
2023-05-14T07:32:28.515Z,9.90
2023-05-14T07:34:55.983Z,9.90
2023-05-14T07:37:24.060Z,9.90
2023-05-14T07:39:51.136Z,9.90
2023-05-14T07:42:28.301Z,9.90
2023-05-14T07:44:59.001Z,9.90
2023-05-14T07:47:26.055Z,10.00
2023-05-14T07:49:57.206Z,10.00
2023-05-14T07:52:24.826Z,10.00
2023-05-14T07:54:55.185Z,10.00
2023-05-14T07:57:29.835Z,9.90
2023-05-14T07:59:56.963Z,10.00
2023-05-14T08:02:27.069Z,9.90
2023-05-14T08:04:54.208Z,9.90
2023-05-14T08:07:21.790Z,9.90
2023-05-14T08:09:51.190Z,10.00
2023-05-14T08:12:18.123Z,10.00
2023-05-14T08:14:44.968Z,9.90
2023-05-14T08:17:11.942Z,9.90
2023-05-14T08:19:38.891Z,10.00
2023-05-14T08:22:05.793Z,9.90
2023-05-14T08:24:32.754Z,9.90
2023-05-14T08:26:59.565Z,9.90
2023-05-14T08:29:26.346Z,9.90
2023-05-14T08:31:53.150Z,9.90
2023-05-14T08:34:20.098Z,9.90
2023-05-14T08:36:46.997Z,9.90
2023-05-14T08:39:13.848Z,9.90
2023-05-14T08:41:40.960Z,9.90
2023-05-14T08:44:12.394Z,9.80
2023-05-14T08:46:40.025Z,9.80
2023-05-14T08:49:40.993Z,9.90
2023-05-14T08:52:09.489Z,10.00
2023-05-14T08:54:36.634Z,10.00
2023-05-14T08:57:04.944Z,10.00
2023-05-14T08:59:31.948Z,10.00
2023-05-14T09:02:30.198Z,10.00
2023-05-14T09:04:59.723Z,10.00
2023-05-14T09:07:27.102Z,10.00
2023-05-14T09:09:54.685Z,10.10
2023-05-14T09:12:22.471Z,10.10
2023-05-14T09:14:50.618Z,10.00
2023-05-14T09:17:18.496Z,9.90
2023-05-14T09:19:49.133Z,9.90
2023-05-14T09:22:17.605Z,9.90
2023-05-14T09:24:44.982Z,9.90
2023-05-14T09:27:21.443Z,9.90
2023-05-14T09:29:48.675Z,9.90
2023-05-14T09:32:15.654Z,9.90
2023-05-14T09:34:42.525Z,9.90
2023-05-14T09:37:10.196Z,10.00
2023-05-14T09:39:38.086Z,10.00
2023-05-14T09:42:05.759Z,9.90
2023-05-14T09:44:32.592Z,10.00
2023-05-14T09:46:59.507Z,9.90
2023-05-14T09:49:26.365Z,9.90
2023-05-14T09:51:53.362Z,9.90
2023-05-14T09:54:20.238Z,9.90
2023-05-14T09:56:47.570Z,9.90
2023-05-14T09:59:14.465Z,9.80
2023-05-14T10:01:43.687Z,9.90
2023-05-14T10:04:11.903Z,9.90
2023-05-14T10:06:39.884Z,10.00
2023-05-14T10:09:12.710Z,10.00
2023-05-14T10:11:43.853Z,10.20
2023-05-14T10:14:37.989Z,10.20
2023-05-14T10:17:07.211Z,10.30
2023-05-14T10:19:35.404Z,10.60
2023-05-14T10:22:08.232Z,10.70
2023-05-14T10:24:35.882Z,10.70
2023-05-14T10:27:03.090Z,10.70
2023-05-14T10:29:37.805Z,10.60
2023-05-14T10:32:07.074Z,10.70
2023-05-14T10:34:44.018Z,10.80
2023-05-14T10:37:17.429Z,10.80
2023-05-14T10:39:50.149Z,10.60
2023-05-14T10:42:20.426Z,10.80
2023-05-14T10:44:58.622Z,10.60
2023-05-14T10:47:29.335Z,10.70
2023-05-14T10:49:57.961Z,10.60
2023-05-14T10:52:25.524Z,10.70
2023-05-14T10:54:59.139Z,10.50
2023-05-14T10:57:29.366Z,10.50
2023-05-14T10:59:57.667Z,10.60
2023-05-14T11:02:29.444Z,10.60
2023-05-14T11:05:00.708Z,10.50
2023-05-14T11:07:32.605Z,10.50
2023-05-14T11:10:03.948Z,10.40
2023-05-14T11:12:31.273Z,10.30
2023-05-14T11:14:59.542Z,10.30
2023-05-14T11:17:30.143Z,10.50
2023-05-14T11:19:57.921Z,10.40
2023-05-14T11:22:25.170Z,10.40
2023-05-14T11:24:52.349Z,10.60
2023-05-14T11:27:20.687Z,10.60
2023-05-14T11:29:48.531Z,10.50
2023-05-14T11:32:16.372Z,10.60
2023-05-14T11:34:47.204Z,10.50
2023-05-14T11:37:15.736Z,10.50
2023-05-14T11:39:52.875Z,10.30
2023-05-14T11:42:20.724Z,10.30
2023-05-14T11:44:49.113Z,10.30
2023-05-14T11:47:17.195Z,10.30
2023-05-14T11:49:44.482Z,10.20
2023-05-14T11:52:16.525Z,10.10
2023-05-14T11:54:44.015Z,10.20
2023-05-14T11:57:13.234Z,10.20
2023-05-14T11:59:40.540Z,10.20
2023-05-14T12:02:12.561Z,10.20
2023-05-14T12:04:40.549Z,10.20
2023-05-14T12:07:12.694Z,10.20
2023-05-14T12:09:49.686Z,10.20
2023-05-14T12:12:21.869Z,10.20
2023-05-14T12:14:49.846Z,10.20
2023-05-14T12:17:18.247Z,10.20
2023-05-14T12:19:46.810Z,10.20
2023-05-14T12:22:23.468Z,10.10
2023-05-14T12:24:57.900Z,10.10
2023-05-14T12:27:26.722Z,10.00
2023-05-14T12:30:27.331Z,10.00
2023-05-14T12:32:53.149Z,10.00
2023-05-14T12:35:21.585Z,9.90
2023-05-14T12:37:48.475Z,9.80
2023-05-14T12:40:15.379Z,9.90
2023-05-14T12:42:42.229Z,9.90
2023-05-14T12:45:09.251Z,9.90
2023-05-14T12:47:37.203Z,9.80
2023-05-14T12:50:05.108Z,9.80
2023-05-14T12:52:39.627Z,9.80
2023-05-14T12:55:09.070Z,9.70
2023-05-14T12:57:58.110Z,9.80
2023-05-14T13:00:25.133Z,9.70
2023-05-14T13:02:52.154Z,9.80
2023-05-14T13:05:18.955Z,9.80
2023-05-14T13:07:45.862Z,9.80
2023-05-14T13:10:12.788Z,9.90
2023-05-14T13:12:39.703Z,9.80
2023-05-14T13:15:07.087Z,9.90
2023-05-14T13:17:33.979Z,9.90
2023-05-14T13:20:00.978Z,9.80
2023-05-14T13:22:27.804Z,9.80
2023-05-14T13:24:54.602Z,9.80
2023-05-14T13:27:21.568Z,9.80
2023-05-14T13:29:48.387Z,9.90
2023-05-14T13:32:15.439Z,9.80
2023-05-14T13:34:44.028Z,9.80
2023-05-14T13:37:11.261Z,9.80
2023-05-14T13:39:38.986Z,9.80
2023-05-14T13:42:06.866Z,9.80
2023-05-14T13:44:33.720Z,9.80
2023-05-14T13:47:00.515Z,9.80
2023-05-14T13:49:27.289Z,9.80
2023-05-14T13:51:54.084Z,9.90
2023-05-14T13:54:20.884Z,9.90
2023-05-14T13:56:47.663Z,9.90
2023-05-14T13:59:15.210Z,9.90
2023-05-14T14:01:43.336Z,9.90
2023-05-14T14:04:12.324Z,9.80
2023-05-14T14:06:39.646Z,9.90
2023-05-14T14:09:06.517Z,9.90
2023-05-14T14:11:33.789Z,9.90
2023-05-14T14:14:00.576Z,9.90
2023-05-14T14:16:27.387Z,9.90
2023-05-14T14:18:54.182Z,9.90
2023-05-14T14:21:21.138Z,9.90
2023-05-14T14:23:50.068Z,10.00
2023-05-14T14:26:16.844Z,9.90
2023-05-14T14:28:43.656Z,10.00
2023-05-14T14:31:30.793Z,9.90
2023-05-14T14:33:57.643Z,9.90
2023-05-14T14:36:24.566Z,9.80
2023-05-14T14:38:51.538Z,9.80
2023-05-14T14:41:18.546Z,9.90
2023-05-14T14:43:45.493Z,9.90
2023-05-14T14:46:29.565Z,9.90
2023-05-14T14:48:56.557Z,9.90
2023-05-14T14:51:23.471Z,10.00
2023-05-14T14:53:50.404Z,10.00
2023-05-14T14:56:17.201Z,10.00
2023-05-14T14:58:45.429Z,10.00
2023-05-14T15:01:12.330Z,10.00
2023-05-14T15:03:39.221Z,10.00
2023-05-14T15:06:06.281Z,10.00
2023-05-14T15:08:33.297Z,10.00
2023-05-14T15:11:00.107Z,10.00
2023-05-14T15:13:27.190Z,10.00
2023-05-14T15:15:54.036Z,10.00
2023-05-14T15:18:21.154Z,10.00
2023-05-14T15:20:48.213Z,9.90
2023-05-14T15:23:15.004Z,9.90
2023-05-14T15:25:41.780Z,10.00
2023-05-14T15:28:08.761Z,10.10
2023-05-14T15:30:35.743Z,10.10
2023-05-14T15:33:02.808Z,10.10
2023-05-14T15:35:29.734Z,10.00
2023-05-14T15:37:59.993Z,10.00
2023-05-14T15:40:27.755Z,10.00
2023-05-14T15:42:54.700Z,10.00
2023-05-14T15:45:21.868Z,10.00
2023-05-14T15:47:48.725Z,10.00
2023-05-14T15:50:15.596Z,10.10
2023-05-14T15:52:42.491Z,10.20
2023-05-14T15:55:10.008Z,10.10
2023-05-14T15:57:36.859Z,10.10
2023-05-14T16:00:14.452Z,10.10
2023-05-14T16:02:41.676Z,10.10
2023-05-14T16:05:29.254Z,10.10
2023-05-14T16:07:56.101Z,10.10
2023-05-14T16:10:23.271Z,10.10
2023-05-14T16:12:50.583Z,10.10
2023-05-14T16:15:17.463Z,10.10
2023-05-14T16:17:44.417Z,10.00
2023-05-14T16:20:12.715Z,10.00
2023-05-14T16:22:39.537Z,10.10
2023-05-14T16:25:06.841Z,10.10
2023-05-14T16:27:34.522Z,10.10
2023-05-14T16:30:25.250Z,10.10
2023-05-14T16:32:52.484Z,10.10
2023-05-14T16:35:27.522Z,10.10
2023-05-14T16:37:54.609Z,10.10
2023-05-14T16:40:23.343Z,10.00
2023-05-14T16:42:51.334Z,10.00
2023-05-14T16:45:18.189Z,10.10
2023-05-14T16:47:45.370Z,10.10
2023-05-14T16:50:12.221Z,10.10
2023-05-14T16:52:39.016Z,10.10
2023-05-14T16:55:06.246Z,10.20
2023-05-14T16:57:34.268Z,10.20
2023-05-14T17:00:06.235Z,10.30
2023-05-14T17:02:33.721Z,10.20
2023-05-14T17:05:01.733Z,10.20
2023-05-14T17:07:28.576Z,10.20
2023-05-14T17:09:55.461Z,10.20
2023-05-14T17:12:23.658Z,10.20
2023-05-14T17:14:50.505Z,10.30
2023-05-14T17:17:17.328Z,10.40
2023-05-14T17:19:45.613Z,10.40
2023-05-14T17:22:12.572Z,10.40
2023-05-14T17:24:39.325Z,10.40
2023-05-14T17:27:07.321Z,10.40
2023-05-14T17:29:34.091Z,10.30
2023-05-14T17:32:23.477Z,10.30
2023-05-14T17:35:07.056Z,10.30
2023-05-14T17:37:34.039Z,10.30
2023-05-14T17:40:00.801Z,10.40
2023-05-14T17:42:27.557Z,10.40
2023-05-14T17:44:54.457Z,10.40
2023-05-14T17:47:23.282Z,10.40
2023-05-14T17:49:51.193Z,10.40
2023-05-14T17:52:18.032Z,10.50
2023-05-14T17:54:44.835Z,10.50
2023-05-14T17:57:11.716Z,10.50
2023-05-14T17:59:38.458Z,10.40
2023-05-14T18:02:05.768Z,10.40
2023-05-14T18:04:32.527Z,10.40
2023-05-14T18:07:01.454Z,10.40
2023-05-14T18:09:29.400Z,10.30
2023-05-14T18:11:57.018Z,10.30
2023-05-14T18:14:23.966Z,10.30
2023-05-14T18:16:51.252Z,10.30
2023-05-14T18:19:18.415Z,10.40
2023-05-14T18:21:48.206Z,10.40
2023-05-14T18:24:15.201Z,10.20
2023-05-14T18:26:42.340Z,10.10
2023-05-14T18:29:09.222Z,10.10
2023-05-14T18:31:36.264Z,10.00
2023-05-14T18:34:03.160Z,9.90
2023-05-14T18:36:29.945Z,9.90
2023-05-14T18:38:56.814Z,9.90
2023-05-14T18:41:23.632Z,9.80
2023-05-14T18:43:50.382Z,9.80
2023-05-14T18:46:17.301Z,9.80
2023-05-14T18:48:44.165Z,9.80
2023-05-14T18:51:12.394Z,9.80
2023-05-14T18:53:39.194Z,9.90
2023-05-14T18:56:06.045Z,9.90
2023-05-14T18:58:32.819Z,10.00
2023-05-14T19:00:59.634Z,10.00
2023-05-14T19:03:26.730Z,10.00
2023-05-14T19:05:54.294Z,10.10
2023-05-14T19:08:21.225Z,10.10
2023-05-14T19:10:48.593Z,10.10
2023-05-14T19:13:18.308Z,10.10
2023-05-14T19:15:45.145Z,10.10
2023-05-14T19:18:13.018Z,10.20
2023-05-14T19:20:39.905Z,10.20
2023-05-14T19:23:06.759Z,10.20
2023-05-14T19:25:34.024Z,10.20
2023-05-14T19:28:03.666Z,10.20
2023-05-14T19:30:31.137Z,10.20
2023-05-14T19:32:57.953Z,10.10
2023-05-14T19:35:25.191Z,10.20
2023-05-14T19:37:52.186Z,10.10
2023-05-14T19:40:19.206Z,10.20
2023-05-14T19:42:46.103Z,10.10
2023-05-14T19:45:14.169Z,10.10
2023-05-14T19:47:42.930Z,10.20
2023-05-14T19:50:10.284Z,10.20
2023-05-14T19:52:37.157Z,10.10
2023-05-14T19:55:04.202Z,10.10
2023-05-14T19:57:31.084Z,10.20
2023-05-14T19:59:58.169Z,10.10
2023-05-14T20:02:25.099Z,10.10
2023-05-14T20:04:55.474Z,10.10
2023-05-14T20:07:22.655Z,10.10
2023-05-14T20:09:49.425Z,10.00
2023-05-14T20:12:16.803Z,9.90
2023-05-14T20:14:44.010Z,9.90
2023-05-14T20:17:10.914Z,9.90
2023-05-14T20:19:37.802Z,10.00
2023-05-14T20:22:04.789Z,10.00
2023-05-14T20:24:31.573Z,10.00
2023-05-14T20:26:58.411Z,10.10
2023-05-14T20:29:25.266Z,10.10
2023-05-14T20:31:52.307Z,10.00
2023-05-14T20:34:19.275Z,10.00
2023-05-14T20:36:46.111Z,10.00
2023-05-14T20:39:12.907Z,10.00
2023-05-14T20:41:39.751Z,10.00
2023-05-14T20:44:06.500Z,10.00
2023-05-14T20:46:33.374Z,10.00
2023-05-14T20:49:02.175Z,10.00
2023-05-14T20:51:29.185Z,10.00
2023-05-14T20:53:55.919Z,10.00
2023-05-14T20:56:22.725Z,9.90
2023-05-14T20:58:49.683Z,9.90
2023-05-14T21:01:16.617Z,9.90
2023-05-14T21:03:48.866Z,9.90
2023-05-14T21:06:15.827Z,9.90
2023-05-14T21:08:42.813Z,9.90
2023-05-14T21:11:09.591Z,9.90
2023-05-14T21:13:36.412Z,10.00
2023-05-14T21:16:03.403Z,10.00
2023-05-14T21:18:32.775Z,10.00
2023-05-14T21:20:59.695Z,9.90
2023-05-14T21:23:26.466Z,9.90
2023-05-14T21:25:54.826Z,9.90
2023-05-14T21:28:22.381Z,9.90
2023-05-14T21:30:50.608Z,9.90
2023-05-14T21:33:18.240Z,10.00
2023-05-14T21:35:45.009Z,10.00
2023-05-14T21:38:12.189Z,10.00
2023-05-14T21:40:38.976Z,10.00
2023-05-14T21:43:05.762Z,10.00
2023-05-14T21:45:32.522Z,10.00
2023-05-14T21:47:59.559Z,9.90
2023-05-14T21:50:26.996Z,9.90
2023-05-14T21:52:53.767Z,9.90
2023-05-14T21:55:20.664Z,9.90
2023-05-14T21:57:47.570Z,10.00
2023-05-14T22:00:18.545Z,9.90
2023-05-14T22:02:45.343Z,9.90
2023-05-14T22:05:12.159Z,9.90
2023-05-14T22:07:38.954Z,9.90
2023-05-14T22:10:06.157Z,9.80
2023-05-14T22:12:32.894Z,9.70
2023-05-14T22:14:59.706Z,9.50
2023-05-14T22:17:28.136Z,9.40
2023-05-14T22:19:55.040Z,9.40
2023-05-14T22:22:21.827Z,9.50
2023-05-14T22:24:48.602Z,9.40
2023-05-14T22:27:15.497Z,9.40
2023-05-14T22:29:42.291Z,9.40
2023-05-14T22:32:10.284Z,9.30
2023-05-14T22:34:37.600Z,9.30
2023-05-14T22:37:04.965Z,9.20
2023-05-14T22:39:31.726Z,9.10
2023-05-14T22:41:58.593Z,9.10
2023-05-14T22:44:26.316Z,9.00
2023-05-14T22:46:54.753Z,9.00
2023-05-14T22:49:21.578Z,8.90
2023-05-14T22:51:48.400Z,8.90
2023-05-14T22:54:15.138Z,8.90
2023-05-14T22:56:41.908Z,9.00
2023-05-14T22:59:08.699Z,8.90
2023-05-14T23:01:35.525Z,8.60
2023-05-14T23:04:02.538Z,8.60
2023-05-14T23:06:30.210Z,8.70
2023-05-14T23:08:57.023Z,8.90
2023-05-14T23:11:25.435Z,8.90
2023-05-14T23:13:52.457Z,8.80
2023-05-14T23:16:19.386Z,8.90
2023-05-14T23:18:46.216Z,8.90
2023-05-14T23:21:14.036Z,9.00
2023-05-14T23:23:40.797Z,9.10
2023-05-14T23:26:07.750Z,9.10
2023-05-14T23:28:34.541Z,9.20
2023-05-14T23:31:01.303Z,9.20
2023-05-14T23:33:28.168Z,9.20
2023-05-14T23:35:55.015Z,9.10
2023-05-14T23:38:21.814Z,9.10
2023-05-14T23:40:48.980Z,9.20
2023-05-14T23:43:15.892Z,9.30
2023-05-14T23:45:42.681Z,9.30
2023-05-14T23:48:09.554Z,9.20
2023-05-14T23:50:37.055Z,9.10
2023-05-14T23:53:03.970Z,9.10
2023-05-14T23:55:30.940Z,9.20
2023-05-14T23:57:57.706Z,9.20
